Time;durP1;ratioP1;P1;durP2;ratioP2;P2;SDS_P1;SDS_P2;PMS_P1;PMS_P2;Temp;Humidity;BMP_temperature;BMP_pressure;BME280_temperature;BME280_humidity;BME280_pressure;Samples;Min_cycle;Max_cycle;Signal;HPM_P1;HPM_P2
2022/02/13 00:00:52;;;;;;;16.13;7.72;;;;;;;2.89;85.87;101860.69;5063657;28;20027;-76
2022/02/13 00:03:17;;;;;;;16.98;7.50;;;;;;;2.91;86.15;101866.88;5090098;28;20446;-76
2022/02/13 00:05:43;;;;;;;12.73;7.22;;;;;;;2.88;86.06;101853.69;5078946;28;20437;-76
2022/02/13 00:08:08;;;;;;;15.27;6.72;;;;;;;2.83;87.05;101849.91;5076986;28;20054;-76
2022/02/13 00:10:33;;;;;;;13.80;6.60;;;;;;;2.80;87.47;101844.50;5060865;28;20039;-76
2022/02/13 00:12:59;;;;;;;13.48;7.25;;;;;;;2.82;87.47;101837.69;5079650;28;20024;-76
2022/02/13 00:15:24;;;;;;;13.10;7.30;;;;;;;2.81;87.42;101835.91;5085132;28;20032;-76
2022/02/13 00:17:50;;;;;;;12.25;6.88;;;;;;;2.81;88.08;101809.94;5076262;28;20476;-76
2022/02/13 00:20:15;;;;;;;16.33;6.53;;;;;;;2.78;87.85;101812.31;5086462;28;20024;-75
2022/02/13 00:22:41;;;;;;;11.13;6.25;;;;;;;2.75;87.94;101820.81;5071707;28;20032;-76
2022/02/13 00:25:07;;;;;;;18.13;6.82;;;;;;;2.72;88.35;101801.53;5076478;28;20510;-76
2022/02/13 00:27:32;;;;;;;11.55;6.35;;;;;;;2.73;88.31;101795.50;5088386;28;20036;-76
2022/02/13 00:29:58;;;;;;;17.00;8.13;;;;;;;2.73;88.62;101793.84;5076118;28;20479;-76
2022/02/13 00:32:26;;;;;;;16.98;7.50;;;;;;;2.75;88.76;101786.13;5082194;28;20042;-76
2022/02/13 00:34:51;;;;;;;14.02;7.72;;;;;;;2.74;88.69;101780.03;5078980;28;20028;-75
2022/02/13 00:37:17;;;;;;;16.83;7.30;;;;;;;2.74;89.37;101771.34;5062034;28;20031;-76
2022/02/13 00:39:43;;;;;;;15.68;7.40;;;;;;;2.69;89.17;101769.34;5092626;28;20020;-76
2022/02/13 00:42:08;;;;;;;15.05;6.78;;;;;;;2.70;89.49;101765.06;5075383;28;20035;-76
2022/02/13 00:44:34;;;;;;;16.98;8.02;;;;;;;2.70;89.21;101762.47;5080478;28;20031;-76
2022/02/13 00:47:00;;;;;;;10.18;6.97;;;;;;;2.65;89.92;101762.16;5061154;28;20020;-76
2022/02/13 00:49:25;;;;;;;15.95;7.53;;;;;;;2.70;90.10;101765.94;5076091;28;20086;-76
2022/02/13 00:51:51;;;;;;;13.57;6.75;;;;;;;2.74;89.48;101766.13;5081143;28;20047;-75
2022/02/13 00:54:16;;;;;;;14.82;6.82;;;;;;;2.78;89.78;101760.31;5079849;28;20063;-75
2022/02/13 00:56:41;;;;;;;12.88;7.60;;;;;;;2.81;89.75;101763.13;5095945;28;20059;-76
2022/02/13 00:59:07;;;;;;;11.73;7.10;;;;;;;2.81;89.10;101757.94;5077752;28;20095;-76
2022/02/13 01:01:32;;;;;;;14.60;7.57;;;;;;;2.86;89.35;101746.09;5102245;28;20031;-76
2022/02/13 01:03:57;;;;;;;11.82;6.82;;;;;;;2.83;89.10;101741.59;5096310;28;20020;-76
2022/02/13 01:06:24;;;;;;;12.73;6.65;;;;;;;2.91;88.79;101742.09;5099879;28;20541;-76
2022/02/13 01:08:49;;;;;;;13.45;7.10;;;;;;;2.92;88.82;101730.91;5093080;28;20034;-76
2022/02/13 01:11:15;;;;;;;14.95;7.50;;;;;;;2.89;88.76;101720.31;5086059;28;20476;-76
2022/02/13 01:13:42;;;;;;;12.40;6.53;;;;;;;2.90;89.14;101716.91;5095216;28;20035;-76
2022/02/13 01:16:08;;;;;;;15.40;6.85;;;;;;;2.98;88.80;101700.06;5094951;28;20024;-76
2022/02/13 01:18:33;;;;;;;13.05;6.32;;;;;;;2.94;88.71;101698.09;5106068;28;20031;-76
2022/02/13 01:20:59;;;;;;;12.77;6.60;;;;;;;2.98;88.38;101693.97;5089438;28;20106;-76
2022/02/13 01:23:24;;;;;;;14.98;6.50;;;;;;;2.99;87.98;101707.06;5106004;28;20036;-75
2022/02/13 01:25:49;;;;;;;12.70;6.80;;;;;;;2.96;88.37;101708.59;5096411;28;20031;-74
2022/02/13 01:28:15;;;;;;;13.52;6.57;;;;;;;2.98;87.96;101705.25;5082383;28;20448;-77
2022/02/13 01:30:40;;;;;;;12.32;7.45;;;;;;;2.98;87.83;101723.47;5094773;28;20067;-75
2022/02/13 01:33:05;;;;;;;15.10;6.72;;;;;;;2.94;88.38;101718.88;5077331;28;20032;-75
2022/02/13 01:35:31;;;;;;;15.65;7.78;;;;;;;2.91;88.67;101703.09;5103312;28;20024;-74
2022/02/13 01:37:56;;;;;;;14.40;6.40;;;;;;;2.88;88.98;101713.31;5103561;28;20027;-75
2022/02/13 01:40:22;;;;;;;14.30;7.78;;;;;;;2.91;88.48;101715.22;5095404;28;20460;-75
2022/02/13 01:42:48;;;;;;;11.93;7.45;;;;;;;2.88;88.50;101708.13;5102022;28;20030;-76
2022/02/13 01:45:13;;;;;;;16.67;6.57;;;;;;;2.83;88.26;101704.34;5101060;28;20506;-76
2022/02/13 01:47:39;;;;;;;19.00;7.15;;;;;;;2.79;88.15;101702.34;5092379;28;20098;-75
2022/02/13 01:50:07;;;;;;;11.07;7.00;;;;;;;2.75;88.33;101680.47;5102761;28;20026;-75
2022/02/13 01:52:33;;;;;;;11.57;6.90;;;;;;;2.77;88.72;101683.16;5100578;28;20066;-76
2022/02/13 01:54:59;;;;;;;10.52;5.80;;;;;;;2.66;89.11;101682.50;5083350;28;20052;-76
2022/02/13 01:57:27;;;;;;;12.02;6.53;;;;;;;2.66;88.59;101686.00;5077742;28;20107;-76
2022/02/13 01:59:54;;;;;;;13.32;6.10;;;;;;;2.65;89.04;101689.41;5075769;28;20078;-76
2022/02/13 02:02:20;;;;;;;15.40;6.53;;;;;;;2.64;88.97;101679.78;5056721;28;20040;-76
2022/02/13 02:04:45;;;;;;;9.77;6.82;;;;;;;2.61;89.70;101681.31;5082733;28;20024;-75
2022/02/13 02:07:11;;;;;;;14.32;6.80;;;;;;;2.59;89.39;101682.91;5082762;28;20068;-76
2022/02/13 02:09:36;;;;;;;9.45;5.90;;;;;;;2.55;88.93;101673.13;5078688;28;20139;-77
2022/02/13 02:12:05;;;;;;;12.95;6.28;;;;;;;2.56;89.37;101677.53;5074386;28;20024;-76
2022/02/13 02:14:31;;;;;;;13.00;7.43;;;;;;;2.55;89.16;101673.13;5073261;28;20035;-77
2022/02/13 02:16:57;;;;;;;11.25;6.38;;;;;;;2.53;89.31;101654.84;5075669;28;20036;-76
2022/02/13 02:19:22;;;;;;;11.65;6.00;;;;;;;2.51;89.39;101653.88;5076404;28;20032;-76
2022/02/13 02:21:47;;;;;;;12.13;6.85;;;;;;;2.54;89.93;101648.88;5061343;28;20024;-77
2022/02/13 02:24:15;;;;;;;12.63;6.53;;;;;;;2.46;89.58;101650.97;5074647;28;20035;-76
2022/02/13 02:26:40;;;;;;;14.10;6.25;;;;;;;2.45;89.77;101635.31;5077920;28;20115;-75
2022/02/13 02:29:06;;;;;;;18.05;7.15;;;;;;;2.39;89.80;101633.22;5057346;28;20098;-76
2022/02/13 02:31:31;;;;;;;11.27;7.18;;;;;;;2.42;89.70;101622.13;5085392;28;20101;-75
2022/02/13 02:33:57;;;;;;;12.52;6.95;;;;;;;2.39;90.27;101624.50;5060805;28;20016;-75
2022/02/13 02:36:22;;;;;;;11.60;6.20;;;;;;;2.36;90.37;101614.81;5078094;28;20024;-75
2022/02/13 02:38:48;;;;;;;10.70;5.72;;;;;;;2.32;90.39;101611.16;5074203;28;20021;-76
2022/02/13 02:41:13;;;;;;;12.27;6.78;;;;;;;2.31;90.71;101614.56;5056153;28;20025;-76
2022/02/13 02:43:39;;;;;;;11.98;6.57;;;;;;;2.29;90.73;101616.19;5081402;28;20033;-75
2022/02/13 02:46:07;;;;;;;12.55;6.85;;;;;;;2.32;90.80;101600.78;5081427;28;20031;-76
2022/02/13 02:48:33;;;;;;;12.93;6.40;;;;;;;2.25;90.81;101598.59;5084329;28;20048;-76
2022/02/13 02:51:00;;;;;;;12.95;6.70;;;;;;;2.27;90.62;101590.91;5068378;28;20027;-76
2022/02/13 02:53:26;;;;;;;10.82;6.80;;;;;;;2.28;90.21;101587.47;5085594;28;20089;-76
2022/02/13 02:55:52;;;;;;;14.23;5.85;;;;;;;2.30;90.38;101576.41;5082025;28;20047;-76
2022/02/13 02:58:17;;;;;;;12.13;6.45;;;;;;;2.28;89.91;101575.41;5101309;28;20035;-75
2022/02/13 03:00:42;;;;;;;16.98;6.00;;;;;;;2.24;90.40;101573.44;5100651;28;20383;-75
2022/02/13 03:03:08;;;;;;;16.25;6.80;;;;;;;2.26;90.39;101571.81;5094285;28;20475;-76
2022/02/13 03:05:33;;;;;;;11.27;5.57;;;;;;;2.23;90.15;101563.84;5076448;28;20183;-77
2022/02/13 03:07:58;;;;;;;11.13;6.20;;;;;;;2.21;90.31;101560.25;5075910;28;20560;-76
2022/02/13 03:10:24;;;;;;;15.23;7.35;;;;;;;2.28;90.29;101557.25;5106658;28;20089;-75
2022/02/13 03:12:49;;;;;;;12.23;6.63;;;;;;;2.22;90.39;101549.06;5099649;28;20432;-75
2022/02/13 03:15:14;;;;;;;15.43;6.50;;;;;;;2.24;90.05;101557.84;5075553;28;20027;-76
2022/02/13 03:17:40;;;;;;;11.65;7.05;;;;;;;2.27;90.12;101544.16;5085554;28;20031;-76
2022/02/13 03:20:05;;;;;;;14.75;5.97;;;;;;;2.27;89.70;101555.44;5096694;28;20472;-76
2022/02/13 03:22:31;;;;;;;10.80;6.00;;;;;;;2.24;89.98;101533.56;5079243;28;20090;-76
2022/02/13 03:24:59;;;;;;;11.30;6.13;;;;;;;2.22;90.08;101537.78;5111861;28;20028;-76
2022/02/13 03:27:26;;;;;;;13.45;6.30;;;;;;;2.22;90.50;101530.88;5085567;28;20495;-75
2022/02/13 03:29:51;;;;;;;12.25;6.47;;;;;;;2.19;90.08;101521.19;5100926;28;20056;-76
2022/02/13 03:32:16;;;;;;;11.00;6.90;;;;;;;2.20;90.49;101522.13;5090323;28;20078;-77
2022/02/13 03:34:42;;;;;;;11.27;6.78;;;;;;;2.18;90.80;101526.31;5099063;28;20497;-76
2022/02/13 03:37:07;;;;;;;14.60;6.55;;;;;;;2.19;90.70;101520.31;5096814;28;20032;-75
2022/02/13 03:39:33;;;;;;;12.02;6.68;;;;;;;2.14;90.34;101506.16;5096907;28;20043;-76
2022/02/13 03:41:58;;;;;;;15.90;6.43;;;;;;;2.13;90.63;101512.13;5096465;28;20032;-75
2022/02/13 03:44:23;;;;;;;11.90;6.68;;;;;;;2.12;90.52;101512.97;5078462;28;20097;-76
2022/02/13 03:46:50;;;;;;;14.68;6.20;;;;;;;2.12;90.46;101515.56;5097835;28;20582;-75
2022/02/13 03:49:15;;;;;;;12.23;6.90;;;;;;;2.11;91.18;101517.25;5086135;28;20024;-76
2022/02/13 03:51:41;;;;;;;18.67;7.07;;;;;;;2.15;91.04;101515.75;5102451;28;20379;-76
2022/02/13 03:54:06;;;;;;;11.82;6.20;;;;;;;2.13;90.95;101513.06;5103857;28;20462;-76
2022/02/13 03:56:31;;;;;;;14.98;6.38;;;;;;;2.12;91.09;101518.16;5083811;28;20078;-75
2022/02/13 03:58:57;;;;;;;13.90;6.95;;;;;;;2.16;91.42;101520.13;5108223;28;20388;-75
2022/02/13 04:01:22;;;;;;;11.73;6.47;;;;;;;2.15;90.67;101520.94;5103365;28;20119;-76
2022/02/13 04:03:47;;;;;;;12.95;6.15;;;;;;;2.09;91.27;101517.94;5097699;28;20024;-76
2022/02/13 04:06:13;;;;;;;10.80;6.70;;;;;;;2.08;91.28;101505.78;5103956;28;20023;-75
2022/02/13 04:08:38;;;;;;;14.48;6.47;;;;;;;2.04;91.64;101514.19;5098635;28;20067;-76
2022/02/13 04:11:03;;;;;;;15.20;6.70;;;;;;;2.03;91.38;101505.50;5106963;28;20020;-76
2022/02/13 04:13:29;;;;;;;12.88;7.22;;;;;;;1.99;91.99;101504.44;5079874;28;20055;-75
2022/02/13 04:15:54;;;;;;;12.40;6.95;;;;;;;2.05;91.82;101508.19;5096458;28;20056;-76
2022/02/13 04:18:20;;;;;;;20.08;7.15;;;;;;;2.04;91.63;101509.00;5084962;28;20023;-76
2022/02/13 04:20:45;;;;;;;14.25;7.38;;;;;;;2.02;92.24;101517.59;5106811;28;20533;-76
2022/02/13 04:23:10;;;;;;;13.35;6.80;;;;;;;1.99;91.89;101511.28;5096475;28;20536;-75
2022/02/13 04:25:37;;;;;;;10.52;5.80;;;;;;;1.95;92.58;101507.59;5080325;28;20031;-76
2022/02/13 04:28:04;;;;;;;10.95;6.13;;;;;;;1.94;92.35;101504.91;5091119;28;20077;-76
2022/02/13 04:30:30;;;;;;;12.45;6.78;;;;;;;1.95;92.18;101494.63;5098055;28;20024;-75
2022/02/13 04:32:56;;;;;;;12.93;6.82;;;;;;;1.95;92.32;101494.63;5108785;28;20589;-75
2022/02/13 04:35:23;;;;;;;11.93;6.55;;;;;;;1.97;92.30;101507.72;5077593;28;20027;-75
2022/02/13 04:37:52;;;;;;;15.73;6.32;;;;;;;2.00;92.25;101506.19;5089709;28;20152;-75
2022/02/13 04:40:18;;;;;;;13.07;6.90;;;;;;;1.99;92.51;101507.03;5098175;28;20119;-77
2022/02/13 04:42:43;;;;;;;11.40;6.50;;;;;;;1.94;92.81;101505.84;5114853;28;20491;-75
2022/02/13 04:45:09;;;;;;;11.32;6.32;;;;;;;1.97;92.64;101498.22;5079573;28;20085;-76
2022/02/13 04:47:34;;;;;;;14.65;6.78;;;;;;;1.98;92.34;101491.31;5102840;28;20032;-75
2022/02/13 04:50:00;;;;;;;10.88;6.20;;;;;;;1.99;92.57;101494.03;5083036;28;20028;-75
2022/02/13 04:52:25;;;;;;;10.45;6.60;;;;;;;2.00;92.46;101482.84;5101481;28;20448;-75
2022/02/13 04:54:50;;;;;;;12.30;6.38;;;;;;;2.04;92.45;101488.22;5100471;28;20036;-75
2022/02/13 04:57:15;;;;;;;12.15;7.28;;;;;;;2.04;92.54;101483.94;5083422;28;20383;-75
2022/02/13 04:59:41;;;;;;;12.18;6.35;;;;;;;2.08;92.02;101474.63;5109428;28;20023;-76
2022/02/13 05:02:07;;;;;;;10.57;6.32;;;;;;;2.08;92.70;101479.84;5097853;28;20027;-76
2022/02/13 05:04:32;;;;;;;9.50;6.32;;;;;;;2.09;92.02;101466.03;5101775;28;20038;-75
2022/02/13 05:06:58;;;;;;;18.20;7.65;;;;;;;2.12;91.99;101451.53;5098308;28;20028;-75
2022/02/13 05:09:23;;;;;;;11.20;6.50;;;;;;;2.15;92.18;101450.84;5100250;28;20041;-75
2022/02/13 05:11:49;;;;;;;11.15;6.82;;;;;;;2.13;92.61;101447.22;5095436;28;20020;-75
2022/02/13 05:14:15;;;;;;;11.75;7.05;;;;;;;2.15;91.99;101436.13;5089585;28;20027;-76
2022/02/13 05:16:40;;;;;;;11.85;6.97;;;;;;;2.21;92.29;101443.41;5099811;28;20035;-76
2022/02/13 05:19:05;;;;;;;12.25;6.82;;;;;;;2.30;91.89;101435.28;5103000;28;20019;-76
2022/02/13 05:21:31;;;;;;;13.52;6.95;;;;;;;2.32;91.02;101426.78;5106281;28;20556;-76
2022/02/13 05:23:56;;;;;;;17.00;6.50;;;;;;;2.39;91.13;101429.72;5090726;28;20027;-76
2022/02/13 05:26:21;;;;;;;10.88;6.53;;;;;;;2.40;91.27;101426.31;5076635;28;20035;-76
2022/02/13 05:28:47;;;;;;;9.98;6.95;;;;;;;2.43;90.56;101422.22;5094336;28;20110;-76
2022/02/13 05:31:12;;;;;;;12.15;6.78;;;;;;;2.46;89.99;101411.13;5099967;28;20024;-76
2022/02/13 05:33:37;;;;;;;15.25;6.22;;;;;;;2.49;90.28;101417.38;5094915;28;20035;-76
2022/02/13 05:36:03;;;;;;;11.48;6.13;;;;;;;2.55;89.34;101418.53;5095317;28;20034;-76
2022/02/13 05:38:28;;;;;;;14.45;6.75;;;;;;;2.54;89.91;101417.66;5102896;28;20032;-75
2022/02/13 05:40:54;;;;;;;9.68;6.38;;;;;;;2.55;90.02;101401.25;5100719;28;20043;-76
2022/02/13 05:43:19;;;;;;;12.60;7.03;;;;;;;2.57;89.48;101399.63;5102882;28;20032;-75
2022/02/13 05:45:45;;;;;;;15.50;6.93;;;;;;;2.57;89.50;101404.84;5094783;28;20035;-75
2022/02/13 05:48:14;;;;;;;10.45;6.15;;;;;;;2.60;89.37;101401.50;5094857;28;20024;-75
2022/02/13 05:50:41;;;;;;;10.60;6.47;;;;;;;2.56;89.37;101397.84;5079370;28;20070;-76
2022/02/13 05:53:07;;;;;;;15.38;6.63;;;;;;;2.62;89.72;101403.41;5100651;28;20039;-76
2022/02/13 05:55:32;;;;;;;15.70;7.13;;;;;;;2.67;89.11;101391.56;5084433;28;20052;-76
2022/02/13 05:57:58;;;;;;;12.88;7.05;;;;;;;2.63;89.66;101400.00;5077730;28;20032;-76
2022/02/13 06:00:23;;;;;;;11.90;6.60;;;;;;;2.64;89.41;101393.09;5056604;28;20032;-75
2022/02/13 06:02:48;;;;;;;11.95;6.65;;;;;;;2.68;89.10;101382.94;5084547;28;20028;-76
2022/02/13 06:05:13;;;;;;;12.55;6.65;;;;;;;2.63;89.46;101374.03;5079575;28;20406;-76
2022/02/13 06:07:40;;;;;;;14.43;7.22;;;;;;;2.62;89.13;101371.31;5074473;28;20047;-76
2022/02/13 06:10:07;;;;;;;12.02;6.78;;;;;;;2.64;89.57;101382.69;5078815;28;20036;-75
2022/02/13 06:12:33;;;;;;;9.95;6.72;;;;;;;2.70;88.96;101376.16;5060513;28;20029;-76
2022/02/13 06:14:58;;;;;;;15.57;6.88;;;;;;;2.73;89.35;101385.84;5077890;28;20024;-76
2022/02/13 06:17:24;;;;;;;11.85;6.63;;;;;;;2.69;89.06;101368.28;5075667;28;20093;-76
2022/02/13 06:19:49;;;;;;;12.77;6.55;;;;;;;2.66;89.33;101363.78;5075107;28;20033;-75
2022/02/13 06:22:15;;;;;;;14.65;6.38;;;;;;;2.70;89.49;101364.88;5079907;28;20055;-76
2022/02/13 06:24:40;;;;;;;11.30;6.20;;;;;;;2.67;89.18;101355.19;5057081;28;20025;-76
2022/02/13 06:27:06;;;;;;;10.73;6.65;;;;;;;2.70;89.10;101364.88;5078498;28;20024;-76
2022/02/13 06:29:31;;;;;;;11.60;6.25;;;;;;;2.70;89.36;101365.75;5082188;28;20464;-76
2022/02/13 06:31:57;;;;;;;9.65;6.82;;;;;;;2.70;89.49;101354.47;5082481;28;20028;-76
2022/02/13 06:34:23;;;;;;;11.15;7.07;;;;;;;2.72;89.25;101367.56;5081023;28;20423;-76
2022/02/13 06:36:48;;;;;;;14.90;6.65;;;;;;;2.74;89.15;101347.72;5081452;28;20066;-76
2022/02/13 06:39:13;;;;;;;12.68;7.05;;;;;;;2.69;89.14;101348.38;5059641;28;20497;-76
2022/02/13 06:41:39;;;;;;;12.18;6.60;;;;;;;2.70;89.18;101350.16;5056664;28;20074;-75
2022/02/13 06:44:04;;;;;;;12.02;7.03;;;;;;;2.67;89.88;101350.00;5081491;28;20024;-76
2022/02/13 06:46:29;;;;;;;13.13;6.85;;;;;;;2.68;89.48;101346.56;5074228;28;20404;-76
2022/02/13 06:48:55;;;;;;;12.60;6.43;;;;;;;2.72;89.46;101341.56;5063303;28;20072;-76
2022/02/13 06:51:20;;;;;;;14.27;6.70;;;;;;;2.69;89.51;101337.97;5081316;28;20107;-75
2022/02/13 06:53:46;;;;;;;10.50;6.28;;;;;;;2.70;89.19;101352.75;5078117;28;20032;-75
2022/02/13 06:56:13;;;;;;;13.45;7.15;;;;;;;2.74;89.53;101337.34;5090367;28;20069;-76
2022/02/13 06:58:38;;;;;;;13.48;6.85;;;;;;;2.75;89.69;101341.72;5080618;28;21230;-76
2022/02/13 07:01:04;;;;;;;10.63;5.78;;;;;;;2.75;89.89;101337.41;5062158;28;20399;-75
2022/02/13 07:03:29;;;;;;;11.00;7.05;;;;;;;2.76;89.41;101349.59;5074662;28;20043;-76
2022/02/13 07:05:54;;;;;;;9.38;6.07;;;;;;;2.82;89.87;101343.84;5077070;28;20016;-75
2022/02/13 07:08:19;;;;;;;11.90;5.80;;;;;;;2.84;89.46;101342.25;5074342;28;20041;-75
2022/02/13 07:10:45;;;;;;;17.73;6.63;;;;;;;2.80;89.77;101325.59;5063951;28;20020;-76
2022/02/13 07:13:10;;;;;;;12.32;6.57;;;;;;;2.81;89.99;101342.97;5056064;28;20134;-76
2022/02/13 07:15:37;;;;;;;11.93;6.80;;;;;;;2.82;89.47;101328.25;5080288;28;20107;-76
2022/02/13 07:18:03;;;;;;;9.48;6.78;;;;;;;2.85;89.73;101338.84;5078871;28;20051;-76
2022/02/13 07:20:28;;;;;;;11.93;6.82;;;;;;;2.91;89.77;101341.78;5079150;28;20094;-76
2022/02/13 07:22:53;;;;;;;15.75;8.15;;;;;;;2.90;89.52;101345.19;5079287;28;20050;-76
2022/02/13 07:25:19;;;;;;;12.93;6.53;;;;;;;2.98;88.70;101346.50;5068950;28;20036;-79
2022/02/13 07:27:44;;;;;;;13.52;6.60;;;;;;;2.96;89.20;101336.84;5075876;28;20074;-82
2022/02/13 07:30:13;;;;;;;14.05;7.07;;;;;;;2.96;88.86;101337.72;5086380;28;20476;-74
2022/02/13 07:32:43;;;;;;;12.93;6.70;;;;;;;3.00;88.57;101331.00;5085605;28;20028;-74
2022/02/13 07:35:09;;;;;;;12.98;7.30;;;;;;;3.00;88.99;101328.41;5056347;28;20028;-74
2022/02/13 07:37:34;;;;;;;11.25;6.30;;;;;;;2.97;89.18;101323.94;5075137;28;20090;-74
2022/02/13 07:40:00;;;;;;;12.65;6.97;;;;;;;3.04;88.74;101320.84;5059207;28;20020;-74
2022/02/13 07:42:26;;;;;;;12.93;6.25;;;;;;;3.03;89.09;101328.56;5076204;28;20073;-74
2022/02/13 07:44:51;;;;;;;10.55;6.10;;;;;;;3.08;89.14;101323.59;5079096;28;20095;-74
2022/02/13 07:47:16;;;;;;;12.10;7.40;;;;;;;3.09;89.04;101315.00;5061635;28;20027;-74
2022/02/13 07:49:42;;;;;;;12.15;6.20;;;;;;;3.05;88.80;101316.53;5084085;28;20025;-74
2022/02/13 07:52:08;;;;;;;11.18;6.57;;;;;;;3.09;88.62;101313.28;5078149;28;20055;-74
2022/02/13 07:54:33;;;;;;;10.75;6.95;;;;;;;3.15;88.01;101302.34;5085466;28;20063;-74
2022/02/13 07:56:59;;;;;;;10.00;6.00;;;;;;;3.18;88.28;101299.91;5084894;28;20023;-74
2022/02/13 07:59:25;;;;;;;12.35;7.20;;;;;;;3.20;88.28;101319.06;5105552;28;20020;-73
2022/02/13 08:01:50;;;;;;;11.82;6.30;;;;;;;3.23;88.45;101300.13;5084142;28;20142;-74
2022/02/13 08:04:15;;;;;;;11.80;6.35;;;;;;;3.28;88.11;101307.38;5105996;28;20624;-75
2022/02/13 08:06:41;;;;;;;9.85;5.95;;;;;;;3.36;87.69;101298.31;5098925;28;20031;-74
2022/02/13 08:09:06;;;;;;;12.00;6.57;;;;;;;3.39;88.14;101307.94;5100302;28;20367;-75
2022/02/13 08:11:32;;;;;;;8.15;5.95;;;;;;;3.36;87.91;101293.09;5104113;28;20053;-74
2022/02/13 08:13:58;;;;;;;11.68;6.40;;;;;;;3.35;87.78;101296.50;5100341;28;20035;-73
2022/02/13 08:16:24;;;;;;;8.98;5.80;;;;;;;3.37;87.66;101296.59;5102535;28;20030;-74
2022/02/13 08:18:49;;;;;;;11.45;6.85;;;;;;;3.43;87.49;101293.41;5105428;28;20107;-73
2022/02/13 08:21:15;;;;;;;11.20;6.68;;;;;;;3.44;87.34;101290.88;5105466;28;20425;-73
2022/02/13 08:23:40;;;;;;;10.93;6.30;;;;;;;3.46;87.71;101275.34;5105857;28;20081;-75
2022/02/13 08:26:06;;;;;;;14.02;6.32;;;;;;;3.47;87.59;101282.34;5102269;28;20119;-75
2022/02/13 08:28:34;;;;;;;11.90;6.20;;;;;;;3.50;87.76;101269.47;5108294;28;20050;-75
2022/02/13 08:31:01;;;;;;;12.40;6.60;;;;;;;3.56;87.14;101277.63;5082799;28;20023;-75
2022/02/13 08:33:27;;;;;;;10.90;6.80;;;;;;;3.60;86.55;101266.56;5097554;28;20491;-72
2022/02/13 08:35:52;;;;;;;9.13;5.97;;;;;;;3.58;87.12;101272.50;5087533;28;20031;-75
2022/02/13 08:38:18;;;;;;;9.88;7.00;;;;;;;3.58;87.17;101262.09;5102928;28;20024;-78
2022/02/13 08:40:44;;;;;;;13.70;6.22;;;;;;;3.61;86.81;101267.44;5096279;28;20051;-77
2022/02/13 08:43:09;;;;;;;11.52;6.63;;;;;;;3.61;86.99;101268.34;5097742;28;20077;-77
2022/02/13 08:45:36;;;;;;;12.27;6.50;;;;;;;3.61;87.24;101244.94;5105425;28;20120;-78
2022/02/13 08:48:02;;;;;;;10.40;6.20;;;;;;;3.66;87.29;101253.88;5086372;28;20023;-76
2022/02/13 08:50:27;;;;;;;11.35;6.38;;;;;;;3.74;87.12;101246.44;5107010;28;20036;-76
2022/02/13 08:52:53;;;;;;;13.85;7.28;;;;;;;3.71;87.04;101235.88;5099040;28;20012;-76
2022/02/13 08:55:20;;;;;;;10.45;5.90;;;;;;;3.73;87.23;101242.06;5067696;28;20108;-75
2022/02/13 08:57:46;;;;;;;10.98;6.47;;;;;;;3.80;86.67;101245.84;5094996;28;20032;-75
2022/02/13 09:00:14;;;;;;;10.38;5.82;;;;;;;3.77;86.33;101232.69;5068071;28;20040;-75
2022/02/13 09:02:40;;;;;;;11.43;6.00;;;;;;;3.78;86.26;101239.69;5080299;28;20033;-76
2022/02/13 09:05:07;;;;;;;11.85;6.57;;;;;;;3.82;86.11;101226.00;5074958;28;20078;-75
2022/02/13 09:07:39;;;;;;;11.00;6.50;;;;;;;3.84;86.52;101229.59;5057287;28;20032;-75
2022/02/13 09:10:10;;;;;;;11.80;6.93;;;;;;;3.93;85.96;101230.03;5086752;28;20039;-75
2022/02/13 09:12:35;;;;;;;11.88;6.60;;;;;;;3.88;85.96;101223.72;5075342;28;20060;-74
2022/02/13 09:15:01;;;;;;;15.77;7.10;;;;;;;3.96;86.42;101218.88;5075759;28;20058;-74
2022/02/13 09:17:27;;;;;;;12.32;6.53;;;;;;;4.02;85.74;101214.00;5075097;28;20031;-76
2022/02/13 09:19:52;;;;;;;14.50;5.90;;;;;;;4.04;86.07;101205.44;5079219;28;20031;-75
2022/02/13 09:22:17;;;;;;;12.50;6.80;;;;;;;4.12;85.49;101202.31;5078961;28;20029;-78
2022/02/13 09:24:42;;;;;;;11.68;6.43;;;;;;;4.22;85.37;101201.94;5079169;28;20029;-76
2022/02/13 09:27:09;;;;;;;9.90;5.78;;;;;;;4.28;84.95;101183.09;5058384;28;20127;-76
2022/02/13 09:29:34;;;;;;;8.88;5.65;;;;;;;4.26;85.21;101177.81;5061341;28;20042;-77
2022/02/13 09:32:00;;;;;;;12.48;6.30;;;;;;;4.25;85.04;101181.25;5083092;28;20561;-79
2022/02/13 09:34:28;;;;;;;9.63;6.18;;;;;;;4.41;85.14;101181.94;5083368;28;20510;-80
2022/02/13 09:36:55;;;;;;;10.95;6.40;;;;;;;4.67;84.28;101172.75;5067316;28;20024;-80
2022/02/13 09:39:20;;;;;;;17.17;6.60;;;;;;;4.71;83.49;101170.34;5089086;28;20063;-83
2022/02/13 09:41:45;;;;;;;10.20;6.18;;;;;;;4.83;83.12;101179.53;5081635;28;20024;-81
2022/02/13 09:44:11;;;;;;;11.07;6.05;;;;;;;5.01;82.47;101182.09;5080909;28;20029;-82
2022/02/13 09:46:37;;;;;;;13.57;6.13;;;;;;;5.05;82.19;101169.25;5075593;28;20024;-79
2022/02/13 09:49:03;;;;;;;12.23;6.80;;;;;;;5.28;81.67;101161.53;5075046;28;20040;-79
2022/02/13 09:51:33;;;;;;;14.55;6.03;;;;;;;5.25;81.99;101151.00;5060305;28;20504;-81
2022/02/13 09:53:59;;;;;;;11.95;5.97;;;;;;;5.26;81.79;101157.09;5076327;28;20040;-79
2022/02/13 09:56:25;;;;;;;15.75;6.30;;;;;;;5.22;81.96;101162.19;5064323;28;20507;-79
2022/02/13 09:58:50;;;;;;;12.75;5.95;;;;;;;5.40;81.71;101162.06;5081205;28;20016;-81
2022/02/13 10:01:17;;;;;;;7.57;5.43;;;;;;;5.54;81.60;101159.16;5058003;28;20055;-79
2022/02/13 10:03:45;;;;;;;9.25;5.65;;;;;;;5.53;80.78;101170.41;5080130;28;20372;-81
2022/02/13 10:06:14;;;;;;;10.30;5.75;;;;;;;5.43;81.47;101161.31;5063611;28;20032;-81
2022/02/13 10:08:53;;;;;;;10.75;6.07;;;;;;;5.57;81.03;101161.88;5057763;28;20456;-79
2022/02/13 10:11:19;;;;;;;12.27;5.47;;;;;;;5.43;81.47;101150.88;5076510;28;20054;-79
2022/02/13 10:13:48;;;;;;;10.40;6.50;;;;;;;5.55;81.62;101159.22;5087442;28;20381;-79
2022/02/13 10:16:16;;;;;;;8.63;5.68;;;;;;;5.59;81.69;101149.81;5061963;28;20036;-79
2022/02/13 10:18:58;;;;;;;10.50;6.00;;;;;;;5.61;81.73;101140.31;5079000;28;20091;-80
2022/02/13 10:21:36;;;;;;;9.70;5.80;;;;;;;5.73;81.65;101146.03;5073802;28;20044;-82
2022/02/13 10:24:29;;;;;;;9.73;5.90;;;;;;;6.08;80.37;101149.22;5079615;28;20550;-80
2022/02/13 10:26:57;;;;;;;8.75;6.10;;;;;;;6.15;80.11;101126.81;5081390;28;20491;-82
2022/02/13 10:29:30;;;;;;;11.68;6.20;;;;;;;6.09;80.21;101129.22;5099337;28;20026;-80
2022/02/13 10:32:14;;;;;;;11.50;5.60;;;;;;;6.05;80.07;101130.81;5080029;28;20029;-82
2022/02/13 10:34:40;;;;;;;10.05;5.68;;;;;;;5.97;80.71;101124.34;5085569;28;20046;-82
2022/02/13 10:37:06;;;;;;;11.40;6.43;;;;;;;6.21;79.39;101134.00;5077777;28;20028;-79
2022/02/13 10:39:43;;;;;;;11.50;5.72;;;;;;;6.45;78.13;101133.19;5082067;28;20421;-79
2022/02/13 10:42:11;;;;;;;10.27;6.35;;;;;;;6.61;77.92;101129.44;5080793;28;20020;-78
2022/02/13 10:44:36;;;;;;;9.38;5.22;;;;;;;6.60;77.33;101115.44;5069060;28;20086;-80
2022/02/13 10:47:02;;;;;;;8.88;5.50;;;;;;;6.55;78.19;101114.38;5105880;28;20429;-80
2022/02/13 10:49:31;;;;;;;12.13;5.80;;;;;;;6.44;78.13;101106.13;5084076;28;20545;-78
2022/02/13 10:51:57;;;;;;;11.65;5.53;;;;;;;6.75;77.26;101095.13;5071949;28;20123;-80
2022/02/13 10:54:22;;;;;;;11.00;5.95;;;;;;;6.75;76.05;101086.34;5099442;27;20397;-79
2022/02/13 10:56:49;;;;;;;8.75;5.30;;;;;;;6.71;75.68;101087.06;5098683;27;20035;-80
2022/02/13 10:59:14;;;;;;;10.02;5.05;;;;;;;6.84;75.37;101091.91;5114220;28;20043;-80
2022/02/13 11:01:41;;;;;;;11.77;5.60;;;;;;;7.24;73.63;101081.94;5099346;28;20044;-80
2022/02/13 11:04:08;;;;;;;7.38;4.55;;;;;;;7.63;72.62;101073.63;5092430;27;20485;-82
2022/02/13 11:06:37;;;;;;;7.13;5.28;;;;;;;7.80;71.68;101079.44;5104311;27;20038;-81
2022/02/13 11:09:23;;;;;;;9.80;5.55;;;;;;;7.93;70.65;101054.47;5113531;28;20027;-78
2022/02/13 11:11:51;;;;;;;9.00;5.50;;;;;;;8.25;70.17;101052.84;5107055;28;20056;-80
2022/02/13 11:14:47;;;;;;;10.85;4.90;;;;;;;8.14;69.44;101037.63;5102930;28;20011;-81
2022/02/13 11:17:36;;;;;;;6.80;4.72;;;;;;;8.02;69.02;101025.94;5083381;28;20047;-81
2022/02/13 11:20:04;;;;;;;9.98;5.00;;;;;;;8.26;69.16;101024.88;5110711;28;20036;-80
2022/02/13 11:22:36;;;;;;;11.05;4.72;;;;;;;8.17;68.59;101028.13;5106519;28;20034;-79